createdAt,value
2023-05-10T00:01:42.470Z,11.48
2023-05-10T00:04:09.336Z,12.52
2023-05-10T00:06:36.142Z,11.07
2023-05-10T00:09:03.104Z,9.85
2023-05-10T00:11:29.940Z,10.68
2023-05-10T00:13:56.829Z,10.40
2023-05-10T00:16:23.728Z,11.80
2023-05-10T00:18:50.527Z,10.70
2023-05-10T00:21:17.314Z,11.65
2023-05-10T00:23:44.077Z,9.98
2023-05-10T00:26:11.166Z,11.27
2023-05-10T00:28:39.435Z,11.98
2023-05-10T00:31:06.294Z,11.07
2023-05-10T00:33:33.119Z,12.30
2023-05-10T00:36:00.003Z,14.52
2023-05-10T00:38:26.814Z,12.88
2023-05-10T00:40:53.693Z,13.63
2023-05-10T00:43:28.233Z,12.50
2023-05-10T00:45:56.010Z,13.77
2023-05-10T00:48:23.501Z,11.88
2023-05-10T00:50:50.449Z,13.02
2023-05-10T00:53:17.950Z,13.95
2023-05-10T00:55:44.948Z,14.57
2023-05-10T00:58:11.851Z,11.57
2023-05-10T01:00:42.447Z,16.85
2023-05-10T01:03:09.444Z,15.15
2023-05-10T01:05:36.342Z,15.27
2023-05-10T01:08:03.734Z,15.05
2023-05-10T01:10:31.827Z,16.50
2023-05-10T01:13:01.475Z,17.33
2023-05-10T01:15:28.639Z,16.10
2023-05-10T01:17:57.542Z,14.38
2023-05-10T01:20:26.222Z,13.18
2023-05-10T01:23:44.087Z,16.85
2023-05-10T01:26:32.683Z,15.73
2023-05-10T01:29:26.541Z,17.38
2023-05-10T01:32:21.594Z,15.25
2023-05-10T01:34:59.534Z,18.80
2023-05-10T01:37:42.400Z,17.17
2023-05-10T01:40:30.468Z,17.55
2023-05-10T01:43:06.246Z,18.75
2023-05-10T01:45:50.616Z,18.10
2023-05-10T01:48:20.879Z,17.85
2023-05-10T01:50:50.173Z,19.30
2023-05-10T01:53:21.298Z,19.85
2023-05-10T01:55:53.533Z,21.38
2023-05-10T01:58:36.251Z,21.67
2023-05-10T02:01:07.097Z,19.92
2023-05-10T02:03:37.971Z,20.38
2023-05-10T02:06:06.775Z,18.65
2023-05-10T02:08:38.001Z,21.52
2023-05-10T02:11:06.715Z,22.48
2023-05-10T02:13:38.405Z,17.13
2023-05-10T02:16:07.839Z,20.52
2023-05-10T02:18:37.642Z,23.67
2023-05-10T02:21:05.628Z,22.70
2023-05-10T02:23:33.025Z,24.98
2023-05-10T02:26:02.879Z,21.77
2023-05-10T02:28:33.543Z,26.15
2023-05-10T02:31:01.598Z,19.50
2023-05-10T02:33:30.915Z,27.08
2023-05-10T02:35:58.234Z,28.58
2023-05-10T02:38:27.810Z,29.13
2023-05-10T02:40:57.642Z,25.50
2023-05-10T02:43:26.711Z,28.60
2023-05-10T02:45:53.807Z,25.05
2023-05-10T02:48:20.744Z,27.73
2023-05-10T02:50:53.328Z,24.42
2023-05-10T02:53:29.604Z,25.17
2023-05-10T02:56:01.803Z,26.73
2023-05-10T02:58:28.690Z,20.25
2023-05-10T03:00:55.584Z,26.25
2023-05-10T03:03:22.402Z,30.15
2023-05-10T03:05:51.175Z,26.70
2023-05-10T03:08:18.087Z,25.65
2023-05-10T03:11:31.527Z,28.25
2023-05-10T03:14:28.218Z,26.00
2023-05-10T03:17:08.210Z,27.08
2023-05-10T03:19:56.619Z,27.13
2023-05-10T03:22:38.229Z,24.80
2023-05-10T03:25:11.855Z,27.35
2023-05-10T03:27:43.676Z,25.77
2023-05-10T03:30:14.541Z,26.98
2023-05-10T03:32:42.301Z,28.75
2023-05-10T03:35:14.325Z,22.02
2023-05-10T03:37:41.856Z,29.58
2023-05-10T03:40:11.005Z,26.33
2023-05-10T03:42:40.350Z,31.20
2023-05-10T03:45:08.593Z,29.35
2023-05-10T03:47:35.555Z,27.02
2023-05-10T03:50:03.403Z,28.10
2023-05-10T03:52:30.486Z,26.52
2023-05-10T03:54:57.332Z,29.58
2023-05-10T03:57:24.730Z,28.42
2023-05-10T03:59:51.630Z,26.30
2023-05-10T04:02:18.491Z,21.58
2023-05-10T04:04:45.366Z,27.15
2023-05-10T04:07:12.206Z,27.05
2023-05-10T04:09:39.003Z,29.55
2023-05-10T04:12:07.119Z,28.98
2023-05-10T04:14:35.245Z,23.63
2023-05-10T04:17:03.120Z,26.13
2023-05-10T04:19:33.248Z,27.13
2023-05-10T04:22:00.699Z,28.23
2023-05-10T04:24:27.571Z,30.08
2023-05-10T04:26:57.777Z,27.15
2023-05-10T04:29:25.174Z,28.73
2023-05-10T04:31:52.022Z,23.88
2023-05-10T04:34:19.012Z,25.70
2023-05-10T04:36:45.784Z,22.75
2023-05-10T04:39:12.613Z,24.27
2023-05-10T04:41:39.627Z,20.75
2023-05-10T04:44:07.168Z,19.90
2023-05-10T04:46:34.293Z,18.88
2023-05-10T04:49:01.172Z,18.13
2023-05-10T04:51:28.011Z,21.48
2023-05-10T04:54:05.451Z,19.92
2023-05-10T04:58:59.918Z,18.25
2023-05-10T05:01:42.894Z,17.70
2023-05-10T05:04:09.699Z,18.42
2023-05-10T05:06:36.600Z,17.98
2023-05-10T05:09:03.550Z,20.58
2023-05-10T05:11:31.173Z,17.23
2023-05-10T05:14:00.180Z,14.98
2023-05-10T05:16:27.728Z,16.92
2023-05-10T05:18:54.665Z,21.42
2023-05-10T05:21:22.389Z,20.02
2023-05-10T05:23:49.300Z,19.10
2023-05-10T05:26:16.203Z,15.55
2023-05-10T05:28:43.153Z,19.10
2023-05-10T05:31:10.579Z,18.17
2023-05-10T05:33:37.686Z,18.38
2023-05-10T05:36:06.789Z,17.00
2023-05-10T05:38:33.775Z,14.85
2023-05-10T05:41:00.673Z,17.17
2023-05-10T05:43:27.732Z,19.92
2023-05-10T05:45:55.041Z,16.38
2023-05-10T05:48:22.235Z,19.27
2023-05-10T05:50:49.121Z,20.13
2023-05-10T05:53:16.754Z,15.63
2023-05-10T05:55:57.001Z,18.85
2023-05-10T05:58:25.194Z,20.50
2023-05-10T06:00:53.075Z,18.08
2023-05-10T06:03:21.054Z,19.60
2023-05-10T06:05:48.191Z,19.38
2023-05-10T06:08:15.052Z,20.83
2023-05-10T06:10:41.885Z,18.33
2023-05-10T06:13:08.701Z,17.65
2023-05-10T06:15:35.688Z,16.40
2023-05-10T06:18:02.577Z,12.02
2023-05-10T06:20:29.741Z,19.80
2023-05-10T06:22:56.580Z,18.83
2023-05-10T06:25:24.087Z,17.38
2023-05-10T06:27:56.375Z,19.05
2023-05-10T06:30:28.339Z,14.88
2023-05-10T06:32:55.974Z,16.70
2023-05-10T06:35:22.995Z,15.20
2023-05-10T06:37:50.655Z,17.85
2023-05-10T06:40:18.184Z,15.20
2023-05-10T06:42:46.153Z,15.48
2023-05-10T06:45:13.833Z,13.32
2023-05-10T06:47:41.448Z,12.75
2023-05-10T06:50:15.156Z,16.13
2023-05-10T06:52:42.136Z,19.33
2023-05-10T06:55:09.825Z,17.48
2023-05-10T06:57:36.701Z,18.83
2023-05-10T07:00:07.503Z,17.90
2023-05-10T07:02:34.529Z,15.68
2023-05-10T07:05:15.416Z,13.68
2023-05-10T07:07:42.444Z,17.92
2023-05-10T07:10:10.071Z,19.45
2023-05-10T07:12:36.931Z,16.63
2023-05-10T07:15:04.289Z,17.17
2023-05-10T07:17:31.199Z,18.30
2023-05-10T07:19:58.237Z,18.75
2023-05-10T07:22:25.059Z,19.15
2023-05-10T07:24:51.920Z,17.40
2023-05-10T07:27:18.712Z,16.42
2023-05-10T07:29:45.812Z,16.83
2023-05-10T07:32:12.618Z,18.48
2023-05-10T07:34:39.454Z,20.65
2023-05-10T07:37:07.220Z,19.77
2023-05-10T07:39:34.095Z,18.63
2023-05-10T07:42:00.873Z,20.75
2023-05-10T07:44:27.664Z,18.67
2023-05-10T07:46:54.615Z,20.33
2023-05-10T07:49:21.433Z,17.17
2023-05-10T07:51:48.382Z,17.58
2023-05-10T07:54:15.316Z,20.08
2023-05-10T07:56:46.528Z,20.98
2023-05-10T07:59:18.064Z,19.40
2023-05-10T08:01:46.151Z,19.33
2023-05-10T08:04:13.094Z,20.10
2023-05-10T08:06:41.520Z,13.05
2023-05-10T08:09:09.247Z,13.35
2023-05-10T08:11:36.256Z,18.08
2023-05-10T08:14:03.185Z,17.70
2023-05-10T08:16:30.152Z,13.88
2023-05-10T08:18:57.220Z,16.67
2023-05-10T08:21:24.095Z,17.75
2023-05-10T08:23:50.987Z,20.08
2023-05-10T08:26:17.860Z,19.00
2023-05-10T08:28:44.719Z,17.58
2023-05-10T08:31:11.599Z,19.05
2023-05-10T08:33:38.493Z,16.17
2023-05-10T08:36:05.472Z,19.60
2023-05-10T08:38:32.339Z,17.23
2023-05-10T08:41:00.421Z,17.90
2023-05-10T08:43:31.401Z,16.80
2023-05-10T08:46:05.095Z,15.50
2023-05-10T08:48:36.243Z,16.02
2023-05-10T08:51:05.379Z,14.90
2023-05-10T08:53:37.935Z,18.73
2023-05-10T08:56:05.552Z,15.82
2023-05-10T08:58:33.072Z,17.83
2023-05-10T09:01:02.375Z,14.98
2023-05-10T09:03:29.482Z,18.05
2023-05-10T09:05:59.527Z,14.40
2023-05-10T09:08:27.906Z,17.58
2023-05-10T09:10:56.361Z,14.00
2023-05-10T09:13:25.768Z,15.35
2023-05-10T09:15:54.150Z,15.75
2023-05-10T09:18:21.155Z,15.80
2023-05-10T09:20:50.070Z,15.38
2023-05-10T09:23:17.167Z,15.40
2023-05-10T09:25:43.987Z,15.10
2023-05-10T09:28:11.114Z,14.32
2023-05-10T09:30:38.289Z,11.07
2023-05-10T09:33:05.702Z,11.77
2023-05-10T09:35:34.487Z,15.52
2023-05-10T09:38:04.928Z,13.77
2023-05-10T09:40:32.700Z,12.98
2023-05-10T09:43:07.075Z,12.40
2023-05-10T09:45:38.528Z,12.98
2023-05-10T09:50:35.211Z,11.98
2023-05-10T09:53:04.673Z,10.27
2023-05-10T09:55:51.540Z,9.27
2023-05-10T09:58:19.290Z,12.60
2023-05-10T10:00:48.840Z,8.02
2023-05-10T10:03:21.703Z,12.13
2023-05-10T10:05:49.801Z,9.60
2023-05-10T10:08:18.507Z,11.65
2023-05-10T10:10:47.178Z,11.88
2023-05-10T10:13:15.079Z,11.50
2023-05-10T10:15:44.790Z,10.02
2023-05-10T10:18:16.567Z,11.90
2023-05-10T10:20:43.928Z,11.50
2023-05-10T10:23:10.871Z,11.90
2023-05-10T10:25:39.604Z,11.65
2023-05-10T10:28:36.638Z,12.77
2023-05-10T10:31:28.897Z,10.48
2023-05-10T10:34:08.279Z,9.55
2023-05-10T10:37:06.282Z,11.13
2023-05-10T10:39:33.706Z,11.48
2023-05-10T10:42:01.053Z,12.05
2023-05-10T10:44:40.029Z,12.35
2023-05-10T10:47:13.276Z,10.68
2023-05-10T10:49:49.359Z,10.98
2023-05-10T10:52:42.185Z,10.68
2023-05-10T10:55:23.471Z,12.68
2023-05-10T10:57:55.737Z,12.02
2023-05-10T11:00:34.464Z,12.95
2023-05-10T11:03:09.656Z,14.80
2023-05-10T11:05:50.690Z,13.45
2023-05-10T11:08:29.272Z,12.32
2023-05-10T11:11:01.913Z,13.30
2023-05-10T11:13:39.880Z,12.73
2023-05-10T11:16:16.832Z,12.30
2023-05-10T11:19:08.706Z,13.38
2023-05-10T11:22:12.295Z,11.88
2023-05-10T11:24:39.148Z,12.48
2023-05-10T11:27:07.406Z,13.30
2023-05-10T11:29:34.274Z,14.63
2023-05-10T11:32:01.372Z,14.20
2023-05-10T11:34:35.542Z,14.90
2023-05-10T11:37:02.614Z,14.02
2023-05-10T11:39:32.039Z,14.05
2023-05-10T11:42:00.263Z,11.95
2023-05-10T11:44:34.081Z,12.70
2023-05-10T11:47:02.184Z,13.02
2023-05-10T11:49:29.253Z,13.45
2023-05-10T11:52:08.925Z,13.40
2023-05-10T11:54:36.242Z,12.68
2023-05-10T11:57:03.881Z,10.45
2023-05-10T11:59:30.839Z,10.82
2023-05-10T12:01:58.228Z,7.35
2023-05-10T12:04:25.978Z,8.57
2023-05-10T12:06:53.052Z,6.25
2023-05-10T12:09:31.481Z,7.50
2023-05-10T12:12:06.865Z,7.65
2023-05-10T12:14:36.360Z,8.05
2023-05-10T12:17:03.385Z,7.95
2023-05-10T12:19:40.998Z,8.50
2023-05-10T12:22:08.017Z,8.70
2023-05-10T12:24:41.574Z,9.98
2023-05-10T12:27:13.346Z,9.98
2023-05-10T12:29:45.349Z,10.00
2023-05-10T12:32:12.516Z,9.90
2023-05-10T12:34:39.629Z,10.20
2023-05-10T12:37:06.598Z,10.25
2023-05-10T12:39:45.638Z,10.75
2023-05-10T12:42:13.121Z,12.07
2023-05-10T12:44:40.905Z,11.40
2023-05-10T12:47:08.068Z,11.40
2023-05-10T12:49:35.148Z,10.98
2023-05-10T12:52:02.377Z,10.55
2023-05-10T12:54:29.269Z,11.00
2023-05-10T12:56:56.164Z,10.95
2023-05-10T12:59:23.883Z,11.38
2023-05-10T13:01:50.901Z,11.10
2023-05-10T13:04:17.777Z,10.50
2023-05-10T13:06:44.769Z,9.23
2023-05-10T13:09:11.612Z,9.40
2023-05-10T13:11:38.727Z,8.38
2023-05-10T13:14:05.503Z,10.40
2023-05-10T13:16:32.900Z,7.97
2023-05-10T13:19:00.234Z,7.15
2023-05-10T13:21:28.446Z,6.40
2023-05-10T13:23:56.559Z,5.45
2023-05-10T13:26:23.818Z,2.33
2023-05-10T13:28:52.811Z,3.72
2023-05-10T13:31:19.828Z,4.13
2023-05-10T13:33:46.698Z,3.83
2023-05-10T13:36:13.579Z,4.18
2023-05-10T13:38:40.522Z,4.03
2023-05-10T13:41:07.392Z,4.05
2023-05-10T13:43:34.212Z,4.30
2023-05-10T13:46:01.184Z,5.03
2023-05-10T13:48:28.222Z,5.07
2023-05-10T13:50:55.214Z,5.78
2023-05-10T13:53:22.179Z,6.45
2023-05-10T13:55:50.401Z,8.30
2023-05-10T13:58:17.202Z,9.80
2023-05-10T14:00:44.015Z,8.77
2023-05-10T14:03:12.075Z,8.05
2023-05-10T14:05:39.524Z,7.82
2023-05-10T14:08:06.486Z,8.57
2023-05-10T14:10:33.351Z,9.25
2023-05-10T14:13:00.266Z,11.15
2023-05-10T14:15:27.018Z,10.25
2023-05-10T14:17:53.949Z,9.23
2023-05-10T14:20:20.768Z,10.65
2023-05-10T14:22:47.700Z,8.93
2023-05-10T14:25:16.093Z,9.18
2023-05-10T14:27:43.100Z,9.25
2023-05-10T14:30:10.691Z,11.05
2023-05-10T14:32:40.420Z,11.07
2023-05-10T14:35:08.994Z,10.55
2023-05-10T14:37:37.985Z,11.68
2023-05-10T14:40:05.560Z,10.90
2023-05-10T14:42:32.522Z,9.55
2023-05-10T14:44:59.553Z,11.30
2023-05-10T14:47:26.458Z,13.18
2023-05-10T14:49:53.266Z,13.48
2023-05-10T14:52:20.099Z,13.18
2023-05-10T14:54:47.247Z,13.20
2023-05-10T14:57:14.067Z,14.45
2023-05-10T14:59:40.837Z,15.00
2023-05-10T15:02:09.373Z,15.07
2023-05-10T15:04:36.666Z,15.98
2023-05-10T15:07:04.073Z,16.30
2023-05-10T15:09:30.982Z,16.08
2023-05-10T15:11:57.760Z,16.27
2023-05-10T15:14:24.575Z,16.60
2023-05-10T15:16:51.336Z,13.60
2023-05-10T15:19:18.189Z,15.68
2023-05-10T15:21:45.580Z,15.50
2023-05-10T15:24:12.501Z,15.23
2023-05-10T15:26:39.325Z,15.82
2023-05-10T15:29:06.147Z,15.43
2023-05-10T15:31:35.806Z,14.63
2023-05-10T15:34:02.918Z,14.50
2023-05-10T15:36:29.690Z,16.48
2023-05-10T15:38:56.897Z,16.73
2023-05-10T15:41:24.494Z,17.55
2023-05-10T15:43:51.434Z,17.90
2023-05-10T15:46:18.220Z,19.52
2023-05-10T15:48:45.066Z,18.67
2023-05-10T15:51:12.218Z,17.65
2023-05-10T15:53:42.445Z,18.35
2023-05-10T15:56:13.977Z,18.83
2023-05-10T15:58:41.861Z,17.23
2023-05-10T16:01:08.766Z,19.08
2023-05-10T16:03:37.499Z,19.23
2023-05-10T16:06:04.870Z,20.15
2023-05-10T16:08:33.568Z,19.15
2023-05-10T16:11:01.083Z,19.80
2023-05-10T16:13:29.473Z,21.05
2023-05-10T16:15:58.165Z,19.67
2023-05-10T16:18:25.239Z,21.17
2023-05-10T16:20:53.677Z,21.48
2023-05-10T16:23:20.614Z,20.90
2023-05-10T16:25:47.440Z,22.58
2023-05-10T16:28:14.329Z,22.38
2023-05-10T16:30:41.181Z,21.77
2023-05-10T16:33:08.105Z,19.75
2023-05-10T16:35:34.910Z,21.48
2023-05-10T16:38:01.799Z,19.23
2023-05-10T16:40:28.779Z,19.10
2023-05-10T16:42:55.590Z,18.73
2023-05-10T16:45:24.185Z,18.17
2023-05-10T16:47:51.072Z,19.52
2023-05-10T16:50:17.898Z,19.08
2023-05-10T16:52:44.669Z,22.08
2023-05-10T16:55:11.489Z,20.88
2023-05-10T16:57:38.266Z,19.85
2023-05-10T17:00:06.140Z,22.17
2023-05-10T17:02:33.111Z,22.50
2023-05-10T17:05:00.017Z,24.88
2023-05-10T17:07:29.342Z,21.52
2023-05-10T17:09:56.631Z,22.05
2023-05-10T17:12:23.702Z,20.50
2023-05-10T17:14:50.854Z,19.67
2023-05-10T17:17:17.823Z,23.15
2023-05-10T17:19:47.531Z,21.52
2023-05-10T17:22:14.679Z,23.33
2023-05-10T17:24:43.459Z,20.52
2023-05-10T17:27:10.524Z,20.25
2023-05-10T17:29:37.577Z,21.17
2023-05-10T17:32:04.632Z,19.30
2023-05-10T17:34:31.502Z,21.00
2023-05-10T17:36:58.240Z,21.23
2023-05-10T17:39:25.191Z,22.27
2023-05-10T17:41:52.019Z,23.23
2023-05-10T17:44:19.004Z,22.23
2023-05-10T17:46:45.767Z,20.38
2023-05-10T17:49:12.529Z,21.98
2023-05-10T17:51:41.369Z,19.85
2023-05-10T17:54:08.220Z,19.60
2023-05-10T17:56:35.076Z,20.13
2023-05-10T17:59:03.327Z,18.58
2023-05-10T18:01:30.090Z,15.25
2023-05-10T18:03:56.915Z,11.13
2023-05-10T18:06:23.976Z,5.95
2023-05-10T18:08:50.912Z,2.72
2023-05-10T18:11:17.857Z,3.00
2023-05-10T18:13:44.591Z,2.45
2023-05-10T18:16:13.340Z,2.60
2023-05-10T18:18:40.229Z,3.03
2023-05-10T18:21:07.049Z,3.33
2023-05-10T18:23:34.018Z,3.50
2023-05-10T18:26:02.242Z,4.15
2023-05-10T18:28:29.070Z,4.47
2023-05-10T18:30:55.963Z,5.93
2023-05-10T18:33:22.829Z,5.28
2023-05-10T18:35:49.868Z,5.70
2023-05-10T18:38:16.804Z,4.72
2023-05-10T18:40:43.630Z,4.70
2023-05-10T18:43:10.723Z,5.00
2023-05-10T18:45:39.020Z,5.85
2023-05-10T18:48:06.732Z,5.25
2023-05-10T18:50:33.658Z,5.22
2023-05-10T18:53:00.465Z,5.80
2023-05-10T18:55:27.946Z,4.65
2023-05-10T18:57:54.710Z,6.07
2023-05-10T19:00:22.680Z,5.85
2023-05-10T19:02:49.588Z,5.22
2023-05-10T19:05:16.596Z,4.75
2023-05-10T19:07:43.968Z,5.78
2023-05-10T19:10:15.229Z,5.28
2023-05-10T19:12:42.244Z,5.60
2023-05-10T19:15:10.421Z,5.97
2023-05-10T19:17:38.784Z,9.18
2023-05-10T19:20:07.130Z,10.27
2023-05-10T19:22:47.121Z,10.15
2023-05-10T19:25:21.554Z,8.75
2023-05-10T19:27:48.421Z,10.07
2023-05-10T19:30:15.323Z,10.02
2023-05-10T19:32:44.198Z,10.13
2023-05-10T19:35:13.254Z,10.75
2023-05-10T19:37:40.551Z,11.23
2023-05-10T19:40:09.711Z,12.13
2023-05-10T19:42:36.720Z,11.55
2023-05-10T19:45:03.852Z,12.38
2023-05-10T19:47:30.813Z,12.40
2023-05-10T19:49:57.786Z,14.13
2023-05-10T19:52:24.640Z,14.85
2023-05-10T19:54:51.494Z,15.00
2023-05-10T19:57:18.528Z,15.90
2023-05-10T19:59:45.320Z,15.65
2023-05-10T20:02:12.126Z,14.43
2023-05-10T20:04:38.913Z,15.35
2023-05-10T20:07:05.764Z,15.80
2023-05-10T20:09:32.649Z,15.23
2023-05-10T20:11:59.539Z,14.25
2023-05-10T20:14:26.799Z,15.40
2023-05-10T20:17:01.389Z,14.55
2023-05-10T20:19:28.302Z,15.35
2023-05-10T20:21:58.627Z,16.30
2023-05-10T20:24:25.419Z,16.33
2023-05-10T20:26:52.333Z,17.23
2023-05-10T20:29:19.116Z,16.95
2023-05-10T20:31:45.948Z,15.68
2023-05-10T20:34:13.230Z,16.60
2023-05-10T20:36:40.101Z,15.27
2023-05-10T20:39:06.864Z,16.55
2023-05-10T20:41:33.676Z,14.75
2023-05-10T20:44:00.709Z,15.77
2023-05-10T20:46:27.688Z,14.63
2023-05-10T20:48:54.564Z,16.77
2023-05-10T20:51:21.371Z,16.77
2023-05-10T20:53:48.262Z,16.30
2023-05-10T20:56:15.136Z,14.68
2023-05-10T20:58:41.934Z,14.40
2023-05-10T21:01:08.767Z,16.38
2023-05-10T21:03:35.721Z,14.85
2023-05-10T21:06:02.547Z,15.35
2023-05-10T21:08:29.333Z,15.45
2023-05-10T21:10:56.241Z,15.55
2023-05-10T21:13:23.017Z,14.68
2023-05-10T21:15:50.002Z,15.02
2023-05-10T21:18:16.893Z,16.17
2023-05-10T21:20:43.702Z,16.88
2023-05-10T21:23:10.556Z,17.55
2023-05-10T21:25:37.571Z,18.10
2023-05-10T21:28:04.611Z,18.95
2023-05-10T21:30:32.836Z,19.02
2023-05-10T21:33:00.331Z,17.17
2023-05-10T21:35:27.289Z,18.55
2023-05-10T21:37:54.158Z,17.65
2023-05-10T21:40:21.115Z,17.27
2023-05-10T21:42:49.673Z,16.75
2023-05-10T21:45:17.484Z,16.48
2023-05-10T21:47:44.322Z,16.33
2023-05-10T21:50:12.652Z,16.95
2023-05-10T21:52:40.011Z,15.95
2023-05-10T21:55:08.663Z,18.27
2023-05-10T21:57:36.552Z,17.15
2023-05-10T22:00:03.732Z,16.75
2023-05-10T22:02:31.369Z,18.35
2023-05-10T22:04:58.509Z,18.48
2023-05-10T22:07:25.356Z,16.83
2023-05-10T22:09:52.108Z,18.73
2023-05-10T22:12:19.094Z,17.13
2023-05-10T22:14:46.001Z,17.40
2023-05-10T22:17:13.601Z,17.67
2023-05-10T22:19:40.506Z,18.55
2023-05-10T22:22:07.362Z,19.25
2023-05-10T22:24:34.630Z,19.02
2023-05-10T22:27:03.068Z,18.63
2023-05-10T22:29:30.494Z,18.98
2023-05-10T22:31:58.160Z,19.75
2023-05-10T22:34:25.300Z,21.27
2023-05-10T22:36:52.510Z,19.88
2023-05-10T22:39:19.255Z,20.27
2023-05-10T22:41:46.046Z,20.38
2023-05-10T22:44:12.828Z,20.45
2023-05-10T22:46:39.747Z,21.35
2023-05-10T22:49:06.937Z,21.75
2023-05-10T22:51:34.671Z,21.15
2023-05-10T22:54:01.429Z,19.98
2023-05-10T22:56:28.424Z,20.63
2023-05-10T22:58:57.530Z,19.63
2023-05-10T23:01:24.691Z,19.92
2023-05-10T23:03:51.793Z,20.20
2023-05-10T23:06:18.589Z,18.73
2023-05-10T23:08:45.398Z,18.60
2023-05-10T23:11:12.662Z,21.60
2023-05-10T23:13:39.487Z,18.85
2023-05-10T23:16:06.755Z,18.92
2023-05-10T23:18:33.999Z,18.65
2023-05-10T23:21:00.840Z,18.20
2023-05-10T23:23:27.751Z,17.77
2023-05-10T23:25:54.648Z,20.80
2023-05-10T23:28:21.635Z,17.20
2023-05-10T23:30:56.243Z,18.15
2023-05-10T23:33:24.467Z,19.95
2023-05-10T23:35:51.538Z,18.42
2023-05-10T23:38:18.328Z,19.02
2023-05-10T23:40:49.826Z,20.25
2023-05-10T23:43:19.713Z,19.80
2023-05-10T23:45:57.864Z,20.17
2023-05-10T23:48:24.919Z,20.27
2023-05-10T23:50:51.800Z,20.33
2023-05-10T23:53:19.062Z,20.08
2023-05-10T23:55:45.910Z,19.83
2023-05-10T23:58:12.746Z,19.63
